createdAt,value
2022-11-24T00:01:44.132Z,98516.88
2022-11-24T00:04:12.682Z,98543.88
2022-11-24T00:06:40.558Z,98553.91
2022-11-24T00:09:08.654Z,98552.66
2022-11-24T00:11:37.785Z,98536.75
2022-11-24T00:14:07.035Z,98551.81
2022-11-24T00:16:37.540Z,98533.19
2022-11-24T00:19:09.692Z,98535.94
2022-11-24T00:21:39.291Z,98557.78
2022-11-24T00:24:07.345Z,98561.66
2022-11-24T00:26:40.157Z,98561.75
2022-11-24T00:29:09.774Z,98568.78
2022-11-24T00:31:42.945Z,98560.22
2022-11-24T00:34:14.458Z,98524.84
2022-11-24T00:36:43.286Z,98560.31
2022-11-24T00:39:14.370Z,98541.06
2022-11-24T00:41:42.783Z,98528.84
2022-11-24T00:44:10.924Z,98567.25
2022-11-24T00:46:39.604Z,98557.16
2022-11-24T00:49:07.733Z,98551.00
2022-11-24T00:51:54.667Z,98528.44
2022-11-24T00:54:22.735Z,98548.81
2022-11-24T00:56:51.564Z,98521.09
2022-11-24T00:59:19.683Z,98557.22
2022-11-24T01:01:47.655Z,98555.31
2022-11-24T01:04:15.609Z,98520.19
2022-11-24T01:06:43.922Z,98544.34
2022-11-24T01:09:12.167Z,98523.63
2022-11-24T01:12:12.560Z,98549.38
2022-11-24T01:14:40.600Z,98543.50
2022-11-24T01:17:08.702Z,98551.13
2022-11-24T01:19:37.015Z,98545.78
2022-11-24T01:22:05.158Z,98548.75
2022-11-24T01:24:33.528Z,98536.16
2022-11-24T01:27:01.927Z,98537.19
2022-11-24T01:29:30.094Z,98548.28
2022-11-24T01:31:58.101Z,98543.91
2022-11-24T01:34:26.216Z,98547.03
2022-11-24T01:36:56.066Z,98507.41
2022-11-24T01:39:24.017Z,98535.22
2022-11-24T01:41:53.189Z,98484.81
2022-11-24T01:44:27.494Z,98544.75
2022-11-24T01:47:06.217Z,98514.84
2022-11-24T01:49:44.309Z,98550.28
2022-11-24T01:52:38.181Z,98510.25
2022-11-24T01:55:18.535Z,98538.78
2022-11-24T01:58:16.030Z,98547.56
2022-11-24T02:00:45.705Z,98521.94
2022-11-24T02:03:18.970Z,98522.06
2022-11-24T02:06:03.254Z,98547.78
2022-11-24T02:08:55.296Z,98552.50
2022-11-24T02:11:26.693Z,98550.72
2022-11-24T02:13:58.030Z,98551.53
2022-11-24T02:16:26.887Z,98551.47
2022-11-24T02:18:54.926Z,98502.91
2022-11-24T02:21:23.456Z,98549.78
2022-11-24T02:24:12.371Z,98492.16
2022-11-24T02:26:49.227Z,98540.66
2022-11-24T02:29:17.498Z,98533.03
2022-11-24T02:32:02.028Z,98537.44
2022-11-24T02:34:30.324Z,98549.03
2022-11-24T02:36:58.201Z,98554.78
2022-11-24T02:39:26.249Z,98542.47
2022-11-24T02:42:06.350Z,98552.50
2022-11-24T02:44:44.330Z,98544.13
2022-11-24T02:47:13.509Z,98555.22
2022-11-24T02:49:41.609Z,98550.63
2022-11-24T02:52:09.708Z,98544.53
2022-11-24T02:54:37.839Z,98548.94
2022-11-24T02:57:05.831Z,98540.56
2022-11-24T02:59:33.914Z,98538.47
2022-11-24T03:02:01.975Z,98542.03
2022-11-24T03:04:29.890Z,98538.16
2022-11-24T03:06:58.607Z,98543.06
2022-11-24T03:09:27.049Z,98544.66
2022-11-24T03:11:54.907Z,98544.75
2022-11-24T03:14:23.377Z,98546.47
2022-11-24T03:16:51.233Z,98540.50
2022-11-24T03:19:19.147Z,98533.38
2022-11-24T03:21:47.197Z,98544.75
2022-11-24T03:24:15.169Z,98537.69
2022-11-24T03:26:43.167Z,98545.09
2022-11-24T03:29:11.661Z,98537.47
2022-11-24T03:31:39.786Z,98533.69
2022-11-24T03:34:08.043Z,98541.75
2022-11-24T03:36:36.278Z,98547.16
2022-11-24T03:39:04.559Z,98547.78
2022-11-24T03:41:32.437Z,98548.34
2022-11-24T03:44:00.622Z,98557.72
2022-11-24T03:46:28.892Z,98555.00
2022-11-24T03:48:57.253Z,98540.28
2022-11-24T03:51:25.355Z,98523.75
2022-11-24T03:53:53.441Z,98480.66
2022-11-24T03:56:21.434Z,98509.44
2022-11-24T03:58:49.451Z,98547.78
2022-11-24T04:01:17.488Z,98553.47
2022-11-24T04:03:45.487Z,98552.09
2022-11-24T04:06:13.702Z,98544.56
2022-11-24T04:08:41.705Z,98549.69
2022-11-24T04:11:29.690Z,98543.50
2022-11-24T04:13:57.843Z,98527.06
2022-11-24T04:16:25.854Z,98565.91
2022-11-24T04:18:54.211Z,98557.44
2022-11-24T04:21:22.432Z,98558.47
2022-11-24T04:23:50.352Z,98560.47
2022-11-24T04:26:18.389Z,98559.53
2022-11-24T04:28:46.476Z,98566.31
2022-11-24T04:31:14.477Z,98559.72
2022-11-24T04:33:42.643Z,98566.75
2022-11-24T04:36:10.555Z,98574.91
2022-11-24T04:39:26.037Z,98568.72
2022-11-24T04:41:26.954Z,98565.41
2022-11-24T04:43:57.164Z,98572.69
2022-11-24T04:46:25.254Z,98574.16
2022-11-24T04:48:53.271Z,98577.41
2022-11-24T04:51:21.218Z,98579.50
2022-11-24T04:53:49.584Z,98550.84
2022-11-24T04:56:17.686Z,98586.34
2022-11-24T04:58:49.337Z,98584.13
2022-11-24T05:01:17.338Z,98591.56
2022-11-24T05:03:45.884Z,98586.41
2022-11-24T05:06:13.884Z,98560.88
2022-11-24T05:08:41.830Z,98568.84
2022-11-24T05:11:10.007Z,98591.44
2022-11-24T05:13:37.965Z,98582.25
2022-11-24T05:16:06.135Z,98593.34
2022-11-24T05:18:34.689Z,98585.59
2022-11-24T05:21:02.521Z,98588.84
2022-11-24T05:23:31.147Z,98582.88
2022-11-24T05:26:02.879Z,98596.69
2022-11-24T05:28:31.152Z,98589.03
2022-11-24T05:31:01.378Z,98590.59
2022-11-24T05:33:32.840Z,98586.22
2022-11-24T05:36:03.920Z,98588.50
2022-11-24T05:38:32.876Z,98559.31
2022-11-24T05:41:07.173Z,98590.81
2022-11-24T05:43:35.402Z,98589.13
2022-11-24T05:46:03.376Z,98589.25
2022-11-24T05:48:31.558Z,98557.94
2022-11-24T05:50:59.675Z,98551.16
2022-11-24T05:53:27.707Z,98555.22
2022-11-24T05:55:55.804Z,98593.13
2022-11-24T05:58:23.819Z,98578.03
2022-11-24T06:00:51.641Z,98610.06
2022-11-24T06:03:19.578Z,98606.19
2022-11-24T06:05:48.269Z,98601.47
2022-11-24T06:08:16.180Z,98605.88
2022-11-24T06:10:44.126Z,98582.13
2022-11-24T06:13:14.780Z,98604.66
2022-11-24T06:15:43.000Z,98616.78
2022-11-24T06:18:10.845Z,98580.34
2022-11-24T06:20:38.803Z,98613.19
2022-11-24T06:23:06.614Z,98622.75
2022-11-24T06:25:35.294Z,98619.28
2022-11-24T06:28:05.300Z,98625.88
2022-11-24T06:30:33.222Z,98623.44
2022-11-24T06:33:01.505Z,98623.44
2022-11-24T06:35:29.453Z,98571.66
2022-11-24T06:37:57.434Z,98630.47
2022-11-24T06:40:25.270Z,98640.19
2022-11-24T06:42:53.372Z,98639.38
2022-11-24T06:45:21.187Z,98634.75
2022-11-24T06:47:49.275Z,98642.06
2022-11-24T06:50:17.348Z,98606.78
2022-11-24T06:52:45.271Z,98641.31
2022-11-24T06:55:13.295Z,98638.47
2022-11-24T06:57:41.295Z,98633.75
2022-11-24T07:00:10.731Z,98641.59
2022-11-24T07:02:44.157Z,98610.63
2022-11-24T07:05:13.968Z,98613.81
2022-11-24T07:07:42.059Z,98644.81
2022-11-24T07:10:10.229Z,98650.13
2022-11-24T07:12:38.262Z,98641.31
2022-11-24T07:15:07.697Z,98647.09
2022-11-24T07:17:40.843Z,98614.88
2022-11-24T07:20:10.792Z,98650.03
2022-11-24T07:22:39.148Z,98595.91
2022-11-24T07:25:09.850Z,98647.66
2022-11-24T07:27:38.233Z,98592.81
2022-11-24T07:30:08.351Z,98643.81
2022-11-24T07:32:36.377Z,98646.59
2022-11-24T07:35:04.909Z,98641.28
2022-11-24T07:37:32.965Z,98645.41
2022-11-24T07:40:00.737Z,98633.81
2022-11-24T07:42:28.848Z,98629.19
2022-11-24T07:44:57.182Z,98635.19
2022-11-24T07:47:25.240Z,98629.31
2022-11-24T07:49:53.223Z,98641.03
2022-11-24T07:52:21.238Z,98636.34
2022-11-24T07:54:49.354Z,98640.97
2022-11-24T07:57:17.454Z,98644.56
2022-11-24T07:59:45.453Z,98654.69
2022-11-24T08:02:13.867Z,98661.09
2022-11-24T08:04:41.987Z,98648.72
2022-11-24T08:07:10.009Z,98651.28
2022-11-24T08:09:37.868Z,98648.66
2022-11-24T08:12:06.735Z,98614.44
2022-11-24T08:14:34.977Z,98625.34
2022-11-24T08:17:03.030Z,98649.31
2022-11-24T08:19:32.473Z,98640.72
2022-11-24T08:22:00.870Z,98649.84
2022-11-24T08:24:28.829Z,98629.00
2022-11-24T08:26:57.323Z,98644.94
2022-11-24T08:29:31.669Z,98644.13
2022-11-24T08:32:01.937Z,98618.19
2022-11-24T08:34:30.174Z,98639.53
2022-11-24T08:36:57.962Z,98616.88
2022-11-24T08:39:25.986Z,98641.47
2022-11-24T08:41:53.981Z,98620.88
2022-11-24T08:44:21.781Z,98636.06
2022-11-24T08:46:50.297Z,98606.94
2022-11-24T08:49:19.103Z,98643.44
2022-11-24T08:51:48.683Z,98632.50
2022-11-24T08:54:19.088Z,98607.81
2022-11-24T08:56:49.672Z,98653.66
2022-11-24T08:59:17.666Z,98657.00
2022-11-24T09:01:45.937Z,98658.19
2022-11-24T09:04:13.884Z,98659.16
2022-11-24T09:06:41.865Z,98651.50
2022-11-24T09:09:11.212Z,98652.63
2022-11-24T09:11:39.484Z,98646.53
2022-11-24T09:14:07.570Z,98628.81
2022-11-24T09:16:35.796Z,98625.81
2022-11-24T09:19:06.190Z,98613.06
2022-11-24T09:21:38.034Z,98608.28
2022-11-24T09:24:07.898Z,98638.53
2022-11-24T09:26:43.131Z,98626.34
2022-11-24T09:29:14.456Z,98602.03
2022-11-24T09:31:42.468Z,98656.72
2022-11-24T09:34:15.663Z,98672.78
2022-11-24T09:36:43.948Z,98669.81
2022-11-24T09:39:12.328Z,98671.97
2022-11-24T09:42:08.482Z,98669.03
2022-11-24T09:45:41.629Z,98669.69
2022-11-24T09:48:14.599Z,98647.94
2022-11-24T09:50:46.480Z,98654.88
2022-11-24T09:53:24.634Z,98673.66
2022-11-24T09:55:58.249Z,98672.09
2022-11-24T09:58:35.775Z,98642.13
2022-11-24T10:01:20.896Z,98668.25
2022-11-24T10:03:53.574Z,98663.06
2022-11-24T10:06:34.946Z,98669.19
2022-11-24T10:09:53.568Z,98674.19
2022-11-24T10:13:24.122Z,98668.81
2022-11-24T10:16:27.822Z,98681.56
2022-11-24T10:19:37.380Z,98656.19
2022-11-24T10:22:33.933Z,98683.75
2022-11-24T10:25:12.509Z,98644.66
2022-11-24T10:28:12.722Z,98643.50
2022-11-24T10:30:40.936Z,98639.91
2022-11-24T10:33:28.748Z,98681.38
2022-11-24T10:36:10.531Z,98673.13
2022-11-24T10:38:59.406Z,98680.28
2022-11-24T10:41:46.660Z,98680.53
2022-11-24T10:44:15.706Z,98679.56
2022-11-24T10:46:44.323Z,98683.97
2022-11-24T10:49:28.699Z,98675.16
2022-11-24T10:52:11.818Z,98688.31
2022-11-24T10:54:55.998Z,98648.28
2022-11-24T10:57:34.292Z,98707.16
2022-11-24T11:00:28.103Z,98695.31
2022-11-24T11:03:51.902Z,98701.06
2022-11-24T11:06:28.979Z,98693.41
2022-11-24T11:09:09.201Z,98702.97
2022-11-24T11:11:40.300Z,98677.75
2022-11-24T11:14:11.206Z,98703.56
2022-11-24T11:16:52.954Z,98711.31
2022-11-24T11:20:00.296Z,98711.94
2022-11-24T11:22:31.765Z,98703.66
2022-11-24T11:25:08.358Z,98680.22
2022-11-24T11:27:37.550Z,98709.50
2022-11-24T11:36:18.807Z,98682.59
2022-11-24T11:38:48.522Z,98681.06
2022-11-24T11:41:31.302Z,98663.06
2022-11-24T11:44:27.012Z,98670.91
2022-11-24T11:46:58.761Z,98672.22
2022-11-24T11:49:26.976Z,98681.50
2022-11-24T11:52:23.905Z,98684.75
2022-11-24T11:55:13.565Z,98719.41
2022-11-24T11:57:54.128Z,98693.03
2022-11-24T12:00:22.688Z,98715.63
2022-11-24T12:03:34.724Z,98710.81
2022-11-24T12:06:55.985Z,98707.69
2022-11-24T12:09:41.621Z,98671.91
2022-11-24T12:12:57.904Z,98725.94
2022-11-24T12:15:51.953Z,98712.63
2022-11-24T12:18:58.621Z,98722.03
2022-11-24T12:21:58.065Z,98729.34
2022-11-24T12:24:57.461Z,98712.25
2022-11-24T12:28:03.580Z,98707.56
2022-11-24T12:31:03.900Z,98714.00
2022-11-24T12:34:08.312Z,98717.13
2022-11-24T12:37:12.082Z,98729.34
2022-11-24T12:39:54.163Z,98732.88
2022-11-24T12:42:49.445Z,98730.06
2022-11-24T12:45:28.756Z,98729.41
2022-11-24T12:48:28.196Z,98734.66
2022-11-24T12:51:00.377Z,98727.75
2022-11-24T12:53:35.044Z,98722.53
2022-11-24T12:56:14.361Z,98737.03
2022-11-24T12:58:55.775Z,98693.97
2022-11-24T13:01:39.415Z,98730.97
2022-11-24T13:04:41.216Z,98737.94
2022-11-24T13:07:27.299Z,98741.66
2022-11-24T13:10:56.146Z,98736.06
2022-11-24T13:13:49.672Z,98747.66
2022-11-24T13:16:35.884Z,98743.84
2022-11-24T13:19:15.132Z,98724.13
2022-11-24T13:21:43.089Z,98759.94
2022-11-24T13:24:17.494Z,98754.47
2022-11-24T13:26:49.490Z,98762.44
2022-11-24T13:29:39.010Z,98724.97
2022-11-24T13:32:06.977Z,98759.94
2022-11-24T13:34:46.038Z,98764.56
2022-11-24T13:37:39.827Z,98728.97
2022-11-24T13:40:13.914Z,98759.94
2022-11-24T13:43:02.859Z,98755.25
2022-11-24T13:45:40.796Z,98761.78
2022-11-24T13:48:21.690Z,98761.66
2022-11-24T13:50:50.168Z,98754.25
2022-11-24T13:53:45.793Z,98765.88
2022-11-24T13:56:14.323Z,98769.63
2022-11-24T13:58:58.462Z,98785.69
2022-11-24T14:01:31.016Z,98776.75
2022-11-24T14:04:36.293Z,98760.13
2022-11-24T14:07:12.506Z,98783.75
2022-11-24T14:09:48.257Z,98739.44
2022-11-24T14:12:25.425Z,98745.88
2022-11-24T14:14:57.401Z,98788.94
2022-11-24T14:17:29.307Z,98789.66
2022-11-24T14:20:16.139Z,98790.78
2022-11-24T14:22:44.948Z,98783.59
2022-11-24T14:25:31.166Z,98795.44
2022-11-24T14:28:00.849Z,98775.00
2022-11-24T14:30:32.157Z,98798.97
2022-11-24T14:33:03.724Z,98776.34
2022-11-24T14:35:34.328Z,98810.94
2022-11-24T14:38:05.273Z,98805.06
2022-11-24T14:40:44.011Z,98806.50
2022-11-24T14:43:33.287Z,98769.44
2022-11-24T14:46:09.899Z,98769.22
2022-11-24T14:48:46.967Z,98784.84
2022-11-24T14:51:28.820Z,98805.69
2022-11-24T14:54:06.882Z,98812.38
2022-11-24T14:56:40.131Z,98791.03
2022-11-24T14:59:26.693Z,98821.22
2022-11-24T15:01:56.937Z,98762.50
2022-11-24T15:05:00.869Z,98830.72
2022-11-24T15:07:29.703Z,98826.66
2022-11-24T15:10:00.967Z,98825.94
2022-11-24T15:12:34.403Z,98823.53
2022-11-24T15:15:23.183Z,98833.50
2022-11-24T15:17:58.036Z,98827.72
2022-11-24T15:20:42.152Z,98841.34
2022-11-24T15:23:28.487Z,98836.28
2022-11-24T15:25:58.302Z,98828.75
2022-11-24T15:28:26.396Z,98837.03
2022-11-24T15:30:59.588Z,98808.75
2022-11-24T15:33:28.805Z,98846.25
2022-11-24T15:35:57.558Z,98850.69
2022-11-24T15:38:26.091Z,98842.09
2022-11-24T15:40:56.897Z,98852.88
2022-11-24T15:43:36.517Z,98860.72
2022-11-24T15:46:05.578Z,98822.69
2022-11-24T15:48:33.587Z,98850.97
2022-11-24T15:51:04.971Z,98852.97
2022-11-24T15:53:37.833Z,98868.19
2022-11-24T15:56:12.596Z,98871.09
2022-11-24T15:58:40.627Z,98867.03
2022-11-24T16:01:08.535Z,98870.66
2022-11-24T16:03:47.111Z,98879.16
2022-11-24T16:06:24.619Z,98849.06
2022-11-24T16:08:54.248Z,98872.16
2022-11-24T16:11:23.241Z,98888.09
2022-11-24T16:13:53.755Z,98890.81
2022-11-24T16:16:25.028Z,98893.22
2022-11-24T16:18:53.337Z,98895.41
2022-11-24T16:21:21.452Z,98881.03
2022-11-24T16:23:50.342Z,98886.66
2022-11-24T16:26:18.272Z,98859.09
2022-11-24T16:28:46.300Z,98900.00
2022-11-24T16:31:16.411Z,98900.63
2022-11-24T16:33:46.614Z,98902.19
2022-11-24T16:36:15.475Z,98909.84
2022-11-24T16:38:44.075Z,98909.75
2022-11-24T16:41:12.664Z,98906.28
2022-11-24T16:43:40.613Z,98895.75
2022-11-24T16:46:16.323Z,98916.13
2022-11-24T16:48:46.718Z,98879.09
2022-11-24T16:51:15.708Z,98911.72
2022-11-24T16:53:44.081Z,98916.00
2022-11-24T16:56:12.267Z,98920.44
2022-11-24T16:58:42.167Z,98920.72
2022-11-24T17:01:14.478Z,98921.94
2022-11-24T17:03:42.958Z,98926.38
2022-11-24T17:06:16.396Z,98935.41
2022-11-24T17:08:46.692Z,98937.66
2022-11-24T17:11:20.446Z,98925.53
2022-11-24T17:13:51.847Z,98929.38
2022-11-24T17:16:25.030Z,98929.81
2022-11-24T17:18:54.038Z,98937.13
2022-11-24T17:21:26.051Z,98928.56
2022-11-24T17:24:00.536Z,98900.72
2022-11-24T17:26:29.270Z,98903.44
2022-11-24T17:28:57.915Z,98946.59
2022-11-24T17:31:28.709Z,98913.28
2022-11-24T17:33:59.758Z,98912.09
2022-11-24T17:36:29.640Z,98950.91
2022-11-24T17:39:01.083Z,98956.91
2022-11-24T17:41:29.081Z,98930.84
2022-11-24T17:43:57.515Z,98956.72
2022-11-24T17:46:27.452Z,98929.50
2022-11-24T17:48:56.729Z,98960.06
2022-11-24T17:51:26.986Z,98962.44
2022-11-24T17:53:57.500Z,98964.50
2022-11-24T17:56:27.825Z,98967.56
2022-11-24T17:58:59.310Z,98972.50
2022-11-24T18:01:31.670Z,98976.47
2022-11-24T18:04:00.008Z,98972.47
2022-11-24T18:06:29.102Z,98939.25
2022-11-24T18:08:58.557Z,98981.84
2022-11-24T18:11:32.216Z,98952.34
2022-11-24T18:14:03.969Z,98976.34
2022-11-24T18:16:34.857Z,98941.53
2022-11-24T18:19:09.945Z,98980.75
2022-11-24T18:21:43.969Z,98958.69
2022-11-24T18:24:13.288Z,98987.84
2022-11-24T18:26:42.637Z,98983.94
2022-11-24T18:29:12.175Z,98945.91
2022-11-24T18:31:40.425Z,98975.34
2022-11-24T18:34:08.969Z,98919.88
2022-11-24T18:36:37.476Z,98984.22
2022-11-24T18:39:07.899Z,98984.50
2022-11-24T18:41:36.012Z,98992.25
2022-11-24T18:44:08.218Z,98986.56
2022-11-24T18:46:37.769Z,98962.91
2022-11-24T18:49:07.372Z,98993.19
2022-11-24T18:51:35.995Z,98997.88
2022-11-24T18:54:05.955Z,99000.84
2022-11-24T18:56:34.375Z,98993.28
2022-11-24T18:59:02.567Z,99002.41
2022-11-24T19:01:32.670Z,98998.69
2022-11-24T19:04:03.239Z,99003.81
2022-11-24T19:06:36.058Z,99006.63
2022-11-24T19:09:18.844Z,99015.13
2022-11-24T19:11:47.817Z,99016.66
2022-11-24T19:14:18.103Z,99009.25
2022-11-24T19:16:48.396Z,99024.03
2022-11-24T19:19:17.463Z,99019.44
2022-11-24T19:21:45.540Z,99030.94
2022-11-24T19:24:13.893Z,99035.63
2022-11-24T19:26:42.156Z,99020.66
2022-11-24T19:29:10.081Z,99031.59
2022-11-24T19:31:39.984Z,99006.56
2022-11-24T19:34:08.366Z,99041.13
2022-11-24T19:36:36.706Z,99039.81
2022-11-24T19:39:05.598Z,98987.38
2022-11-24T19:41:34.521Z,99046.81
2022-11-24T19:44:02.659Z,99059.03
2022-11-24T19:46:31.690Z,99052.97
2022-11-24T19:49:02.112Z,99006.63
2022-11-24T19:51:38.634Z,99017.19
2022-11-24T19:54:10.493Z,99068.59
2022-11-24T19:56:38.609Z,99058.13
2022-11-24T19:59:08.241Z,99065.47
2022-11-24T20:01:40.067Z,99053.88
2022-11-24T20:04:12.571Z,99079.41
2022-11-24T20:06:44.680Z,99063.25
2022-11-24T20:09:18.222Z,99082.03
2022-11-24T20:11:48.732Z,99087.44
2022-11-24T20:14:19.605Z,99029.31
2022-11-24T20:16:48.258Z,99089.09
2022-11-24T20:19:18.517Z,99060.31
2022-11-24T20:21:50.297Z,99060.03
2022-11-24T20:24:24.872Z,99089.81
2022-11-24T20:26:58.895Z,99093.78
2022-11-24T20:29:29.325Z,99060.41
2022-11-24T20:31:57.752Z,99105.66
2022-11-24T20:34:27.260Z,99076.91
2022-11-24T20:36:58.381Z,99040.72
2022-11-24T20:39:28.542Z,99083.47
2022-11-24T20:41:59.853Z,99079.25
2022-11-24T20:44:30.061Z,99112.44
2022-11-24T20:47:00.322Z,99074.25
2022-11-24T20:49:28.804Z,99124.19
2022-11-24T20:51:57.691Z,99128.28
2022-11-24T20:54:28.283Z,99125.53
2022-11-24T20:56:56.547Z,99116.34
2022-11-24T20:59:25.976Z,99141.88
2022-11-24T21:01:59.338Z,99139.38
2022-11-24T21:04:28.179Z,99112.50
2022-11-24T21:06:57.146Z,99094.06
2022-11-24T21:09:27.249Z,99024.53
2022-11-24T21:11:55.868Z,99151.63
2022-11-24T21:14:24.697Z,99158.63
2022-11-24T21:16:52.883Z,99126.38
2022-11-24T21:19:21.445Z,99171.41
2022-11-24T21:21:50.126Z,99160.28
2022-11-24T21:24:22.130Z,99157.09
2022-11-24T21:26:51.866Z,99116.91
2022-11-24T21:29:23.820Z,99154.63
2022-11-24T21:31:52.414Z,99161.81
2022-11-24T21:34:20.957Z,99160.03
2022-11-24T21:36:49.792Z,99167.03
2022-11-24T21:39:18.824Z,99166.03
2022-11-24T21:41:47.697Z,99164.22
2022-11-24T21:44:16.292Z,99165.56
2022-11-24T21:46:49.511Z,99165.88
2022-11-24T21:49:20.540Z,99120.34
2022-11-24T21:51:55.827Z,99165.88
2022-11-24T21:54:24.695Z,99185.47
2022-11-24T21:56:54.172Z,99132.41
2022-11-24T21:59:22.973Z,99180.41
2022-11-24T22:01:51.337Z,99180.28
2022-11-24T22:04:19.418Z,99184.91
2022-11-24T22:06:47.371Z,99141.69
2022-11-24T22:09:18.159Z,99123.72
2022-11-24T22:11:49.514Z,99176.50
2022-11-24T22:14:17.722Z,99151.25
2022-11-24T22:16:46.153Z,99188.75
2022-11-24T22:19:15.655Z,99178.44
2022-11-24T22:21:43.928Z,99138.41
2022-11-24T22:24:12.147Z,99178.91
2022-11-24T22:26:40.087Z,99192.75
2022-11-24T22:29:08.601Z,99182.81
2022-11-24T22:31:37.596Z,99116.47
2022-11-24T22:34:06.086Z,99192.09
2022-11-24T22:36:35.354Z,99187.91
2022-11-24T22:39:06.540Z,99176.19
2022-11-24T22:41:36.047Z,99180.44
2022-11-24T22:44:05.806Z,99197.09
2022-11-24T22:46:34.098Z,99116.81
2022-11-24T22:49:02.339Z,99169.63
2022-11-24T22:51:34.324Z,99199.06
2022-11-24T22:54:05.152Z,99191.03
2022-11-24T22:56:34.133Z,99203.53
2022-11-24T22:59:03.608Z,99203.88
2022-11-24T23:01:33.921Z,99170.75
2022-11-24T23:04:02.551Z,99207.13
2022-11-24T23:06:33.079Z,99175.09
2022-11-24T23:09:03.221Z,99202.72
2022-11-24T23:11:38.232Z,99162.88
2022-11-24T23:14:13.471Z,99202.50
2022-11-24T23:16:42.571Z,99156.00
2022-11-24T23:19:11.075Z,99195.00
2022-11-24T23:21:39.235Z,99189.75
2022-11-24T23:24:08.640Z,99196.81
2022-11-24T23:26:40.367Z,99144.13
2022-11-24T23:29:09.613Z,99206.09
2022-11-24T23:31:40.052Z,99201.34
2022-11-24T23:34:08.610Z,99205.41
2022-11-24T23:36:36.400Z,99163.50
2022-11-24T23:39:12.319Z,99185.09
2022-11-24T23:41:40.775Z,99168.69
2022-11-24T23:44:08.741Z,99207.22
2022-11-24T23:46:37.056Z,99218.44
2022-11-24T23:49:04.861Z,99213.22
2022-11-24T23:51:34.271Z,99228.41
2022-11-24T23:54:02.404Z,99218.03
2022-11-24T23:56:33.245Z,99223.91
2022-11-24T23:59:04.149Z,99220.06
